This demonstration page uses our WeatherBlox Daily Observations layout. Learn more.

Left ArrowRight Arrow

Hourly Observations for May 28, 2017

Temp ( °F °C ) Dew Point ( °F °C ) Humidity (%) Winds ( mph kmh ) Pressure ( in mb ) Visibility ( mi km ) Precip ( " mm )
12:54 am 00:54 Clear 62 16.7 52 11.1 70 70 NNW 9 15 29.93 1014 10 16.0934 0 0
1:54 am 01:54 Clear 60 15.6 51 10.6 72 72 WNW 3 6 29.93 1014 10 16.0934 0 0
2:54 am 02:54 Clear 59 15 51 10.6 75 75 WSW 5 7 29.94 1014 10 16.0934 0 0
3:54 am 03:54 Clear 55 12.8 50 10 83 83 SSE 5 7 29.91 1013 10 16.0934 0 0
4:54 am 04:54 Clear 56 13.3 51 10.6 84 84 W 3 6 29.91 1013 10 16.0934 0 0
5:54 am 05:54 Clear 53 11.7 50 10 89 89 Calm 29.91 1013 10 16.0934 0 0
6:54 am 06:54 Sunny 58 14.4 50 10 75 75 WNW 5 7 29.9 1013 10 16.0934 0 0
7:54 am 07:54 Sunny 62 16.7 50 10 65 65 NW 7 11 29.92 1013 10 16.0934 0 0
8:54 am 08:54 Sunny 66 18.9 50 10 56 56 NW 9 15 29.93 1014 10 16.0934 0 0
9:54 am 09:54 Sunny 71 21.7 49 9.4 46 46 WNW 8 13 29.93 1014 10 16.0934 0 0
10:54 am 10:54 Sunny 75 23.9 48 8.9 39 39 NNW 12 19 29.93 1014 10 16.0934 0 0
11:54 am 11:54 Sunny 77 25 45 7.2 32 32 WNW 8 13 29.94 1014 10 16.0934 0 0
12:54 pm 12:54 Mostly Sunny 80 26.7 43 6.1 27 27 W 9 15 29.92 1013 10 16.0934 0 0
1:54 pm 13:54 Mostly Cloudy 81 27.2 42 5.6 25 25 WNW 10 17 29.91 1013 10 16.0934 0 0
2:54 pm 14:54 Mostly Sunny 84 28.9 40 4.4 21 21 WNW 17 28 29.88 1012 10 16.0934 0 0
3:54 pm 15:54 Mostly Sunny 84 28.9 40 4.4 21 21 NW 23 37 29.88 1012 10 16.0934 0 0
4:54 pm 16:54 Sunny 82 27.8 37 2.8 20 20 NNW 22 35 29.9 1013 10 16.0934 0 0
5:54 pm 17:54 Sunny 81 27.2 36 2.2 20 20 NNW 18 30 29.91 1013 10 16.0934 0 0
6:54 pm 18:54 Sunny 79 26.1 37 2.8 22 22 NNW 15 24 29.9 1013 10 16.0934 0 0
7:54 pm 19:54 Sunny 76 24.4 39 3.9 26 26 NW 8 13 29.9 1013 10 16.0934 0 0
8:54 pm 20:54 Clear 72 22.2 41 5 33 33 WNW 6 9 29.9 1013 10 16.0934 0 0
9:54 pm 21:54 Clear 64 17.8 45 7.2 50 50 Calm 29.91 1013 10 16.0934 0 0
10:54 pm 22:54 Clear 63 17.2 45 7.2 52 52 Calm 29.9 1013 10 16.0934 0 0
11:54 pm 23:54 Clear 61 16.1 46 7.8 58 58 Calm 29.89 1012 10 16.0934 0 0

Powered by AerisWeather